createdAt,value
2022-12-06T00:00:42.895Z,97.68
2022-12-06T00:01:42.957Z,97.85
2022-12-06T00:02:42.896Z,97.33
2022-12-06T00:03:42.945Z,97.47
2022-12-06T00:04:42.895Z,97.37
2022-12-06T00:05:46.261Z,97.47
2022-12-06T00:06:42.863Z,97.47
2022-12-06T00:07:42.923Z,98.20
2022-12-06T00:08:42.853Z,98.30
2022-12-06T00:09:42.870Z,98.45
2022-12-06T00:10:42.841Z,98.24
2022-12-06T00:11:42.837Z,97.52
2022-12-06T00:12:42.835Z,99.28
2022-12-06T00:13:42.825Z,99.07
2022-12-06T00:14:42.838Z,98.76
2022-12-06T00:15:42.801Z,98.66
2022-12-06T00:16:42.842Z,98.86
2022-12-06T00:17:43.227Z,98.76
2022-12-06T00:18:42.791Z,98.86
2022-12-06T00:19:42.788Z,98.76
2022-12-06T00:20:42.789Z,98.86
2022-12-06T00:21:42.777Z,99.18
2022-12-06T00:22:42.757Z,99.07
2022-12-06T00:23:42.752Z,99.28
2022-12-06T00:24:42.769Z,99.18
2022-12-06T00:25:42.752Z,98.97
2022-12-06T00:26:42.735Z,99.12
2022-12-06T00:27:42.729Z,99.12
2022-12-06T00:28:42.713Z,99.64
2022-12-06T00:29:42.737Z,99.85
2022-12-06T00:30:42.703Z,99.85
2022-12-06T00:31:42.766Z,99.74
2022-12-06T00:32:42.692Z,99.85
2022-12-06T00:33:42.705Z,99.85
2022-12-06T00:34:42.675Z,99.95
2022-12-06T00:35:42.707Z,99.95
2022-12-06T00:36:42.668Z,99.33
2022-12-06T00:37:42.663Z,99.33
2022-12-06T00:38:42.707Z,99.12
2022-12-06T00:39:42.653Z,98.76
2022-12-06T00:40:42.651Z,98.91
2022-12-06T00:41:42.653Z,99.12
2022-12-06T00:42:42.639Z,98.81
2022-12-06T00:43:42.622Z,99.12
2022-12-06T00:44:42.629Z,98.19
2022-12-06T00:45:42.625Z,97.67
2022-12-06T00:46:42.607Z,97.04
2022-12-06T00:47:42.618Z,97.31
2022-12-06T00:48:42.588Z,97.41
2022-12-06T00:49:42.587Z,97.04
2022-12-06T00:50:42.587Z,96.42
2022-12-06T00:51:42.575Z,97.04
2022-12-06T00:52:42.620Z,96.83
2022-12-06T00:53:42.565Z,97.25
2022-12-06T00:54:42.558Z,96.89
2022-12-06T00:55:42.544Z,96.73
2022-12-06T00:56:42.549Z,96.83
2022-12-06T00:57:42.535Z,96.21
2022-12-06T00:58:42.534Z,96.17
2022-12-06T00:59:42.527Z,96.62
2022-12-06T01:00:42.514Z,97.04
2022-12-06T01:01:42.566Z,96.62
2022-12-06T01:02:42.525Z,96.31
2022-12-06T01:03:42.543Z,95.86
2022-12-06T01:04:42.504Z,95.86
2022-12-06T01:05:42.481Z,95.86
2022-12-06T01:06:42.491Z,95.54
2022-12-06T01:07:42.517Z,95.65
2022-12-06T01:08:42.460Z,96.11
2022-12-06T01:09:42.476Z,95.69
2022-12-06T01:10:42.442Z,96.11
2022-12-06T01:11:42.438Z,96.00
2022-12-06T01:12:42.423Z,96.42
2022-12-06T01:13:42.434Z,96.11
2022-12-06T01:14:42.424Z,96.11
2022-12-06T01:15:42.465Z,96.31
2022-12-06T01:16:42.498Z,95.79
2022-12-06T01:17:42.395Z,96.00
2022-12-06T01:18:42.388Z,95.28
2022-12-06T01:19:42.383Z,95.69
2022-12-06T01:20:42.380Z,95.79
2022-12-06T01:21:42.412Z,95.65
2022-12-06T01:22:42.373Z,96.11
2022-12-06T01:23:42.373Z,95.75
2022-12-06T01:24:42.357Z,95.54
2022-12-06T01:25:42.355Z,95.59
2022-12-06T01:26:42.344Z,95.65
2022-12-06T01:27:42.360Z,96.21
2022-12-06T01:28:42.349Z,96.21
2022-12-06T01:29:42.330Z,96.73
2022-12-06T01:30:42.398Z,97.14
2022-12-06T01:31:42.314Z,97.56
2022-12-06T01:32:42.314Z,97.45
2022-12-06T01:33:42.335Z,97.98
2022-12-06T01:34:42.290Z,97.04
2022-12-06T01:35:42.297Z,97.98
2022-12-06T01:36:42.292Z,97.61
2022-12-06T01:37:42.294Z,97.88
2022-12-06T01:38:42.266Z,98.29
2022-12-06T01:39:42.270Z,97.98
2022-12-06T01:40:42.259Z,97.92
2022-12-06T01:41:42.263Z,97.61
2022-12-06T01:42:42.240Z,98.33
2022-12-06T01:43:42.232Z,98.54
2022-12-06T01:44:42.234Z,98.44
2022-12-06T01:45:42.270Z,97.77
2022-12-06T01:46:42.255Z,97.50
2022-12-06T01:47:42.221Z,97.56
2022-12-06T01:48:42.195Z,98.02
2022-12-06T01:49:42.206Z,97.61
2022-12-06T01:50:42.196Z,97.81
2022-12-06T01:51:42.194Z,97.67
2022-12-06T01:52:42.165Z,97.40
2022-12-06T01:53:42.164Z,97.35
2022-12-06T01:54:42.160Z,97.67
2022-12-06T01:55:42.170Z,97.45
2022-12-06T01:56:42.146Z,97.61
2022-12-06T01:57:42.148Z,97.61
2022-12-06T01:58:42.130Z,97.81
2022-12-06T01:59:42.127Z,97.96
2022-12-06T02:00:42.129Z,98.23
2022-12-06T02:01:42.218Z,98.23
2022-12-06T02:02:42.189Z,98.54
2022-12-06T02:03:42.107Z,98.23
2022-12-06T02:04:42.112Z,98.33
2022-12-06T02:05:42.083Z,98.33
2022-12-06T02:06:42.082Z,98.54
2022-12-06T02:07:42.141Z,97.71
2022-12-06T02:08:42.058Z,98.13
2022-12-06T02:09:42.065Z,96.98
2022-12-06T02:10:42.076Z,97.61
2022-12-06T02:11:42.044Z,97.19
2022-12-06T02:12:42.062Z,97.40
2022-12-06T02:13:42.040Z,98.27
2022-12-06T02:14:42.059Z,98.33
2022-12-06T02:15:42.022Z,98.13
2022-12-06T02:16:42.069Z,98.33
2022-12-06T02:17:42.019Z,98.23
2022-12-06T02:18:42.023Z,99.11
2022-12-06T02:19:42.003Z,98.23
2022-12-06T02:20:41.987Z,97.86
2022-12-06T02:21:41.984Z,97.09
2022-12-06T02:22:41.974Z,97.55
2022-12-06T02:23:41.986Z,98.02
2022-12-06T02:24:41.958Z,97.50
2022-12-06T02:25:43.529Z,97.09
2022-12-06T02:26:41.951Z,97.19
2022-12-06T02:27:41.939Z,97.09
2022-12-06T02:28:41.936Z,96.88
2022-12-06T02:29:41.949Z,96.88
2022-12-06T02:30:41.991Z,97.09
2022-12-06T02:31:41.911Z,96.88
2022-12-06T02:32:41.925Z,97.30
2022-12-06T02:33:41.911Z,97.19
2022-12-06T02:34:41.907Z,97.40
2022-12-06T02:35:41.892Z,98.02
2022-12-06T02:36:41.894Z,97.50
2022-12-06T02:37:41.874Z,97.61
2022-12-06T02:38:41.890Z,97.50
2022-12-06T02:39:41.867Z,98.13
2022-12-06T02:40:41.872Z,97.40
2022-12-06T02:41:41.854Z,97.56
2022-12-06T02:42:41.838Z,97.30
2022-12-06T02:43:41.838Z,97.35
2022-12-06T02:44:41.824Z,96.73
2022-12-06T02:45:41.846Z,96.52
2022-12-06T02:46:41.872Z,96.31
2022-12-06T02:47:41.816Z,95.69
2022-12-06T02:48:41.824Z,95.13
2022-12-06T02:49:41.798Z,94.82
2022-12-06T02:50:41.785Z,94.71
2022-12-06T02:51:41.789Z,95.17
2022-12-06T02:52:41.782Z,95.07
2022-12-06T02:53:41.778Z,95.17
2022-12-06T02:54:41.801Z,95.48
2022-12-06T02:55:41.767Z,95.90
2022-12-06T02:56:41.776Z,95.79
2022-12-06T02:57:41.751Z,95.90
2022-12-06T02:58:41.759Z,95.90
2022-12-06T02:59:41.739Z,95.69
2022-12-06T03:00:41.729Z,96.42
2022-12-06T03:01:41.780Z,96.00
2022-12-06T03:02:41.870Z,95.79
2022-12-06T03:03:41.728Z,95.90
2022-12-06T03:04:41.709Z,96.11
2022-12-06T03:05:41.700Z,96.94
2022-12-06T03:06:41.734Z,96.98
2022-12-06T03:07:41.730Z,97.40
2022-12-06T03:08:41.677Z,96.62
2022-12-06T03:09:41.687Z,96.98
2022-12-06T03:10:41.668Z,96.52
2022-12-06T03:11:41.665Z,96.36
2022-12-06T03:12:41.652Z,96.98
2022-12-06T03:13:41.649Z,96.57
2022-12-06T03:14:41.655Z,96.31
2022-12-06T03:15:41.681Z,96.21
2022-12-06T03:16:41.617Z,95.90
2022-12-06T03:17:41.622Z,96.11
2022-12-06T03:18:41.608Z,96.11
2022-12-06T03:19:41.607Z,95.90
2022-12-06T03:20:41.611Z,96.11
2022-12-06T03:21:41.603Z,96.15
2022-12-06T03:22:41.584Z,96.21
2022-12-06T03:23:41.587Z,95.69
2022-12-06T03:24:41.576Z,95.90
2022-12-06T03:25:41.593Z,95.73
2022-12-06T03:26:41.558Z,96.00
2022-12-06T03:27:41.562Z,96.00
2022-12-06T03:28:41.547Z,96.00
2022-12-06T03:29:41.544Z,95.28
2022-12-06T03:30:41.568Z,95.63
2022-12-06T03:31:41.542Z,95.48
2022-12-06T03:32:41.523Z,95.28
2022-12-06T03:33:41.517Z,95.07
2022-12-06T03:34:41.511Z,95.63
2022-12-06T03:35:41.506Z,95.94
2022-12-06T03:36:41.512Z,95.28
2022-12-06T03:37:41.492Z,95.48
2022-12-06T03:38:41.483Z,95.90
2022-12-06T03:39:41.482Z,95.90
2022-12-06T03:40:41.487Z,95.38
2022-12-06T03:41:41.466Z,95.69
2022-12-06T03:42:41.452Z,95.32
2022-12-06T03:43:41.453Z,95.32
2022-12-06T03:44:41.438Z,95.42
2022-12-06T03:45:41.484Z,95.84
2022-12-06T03:46:41.482Z,95.94
2022-12-06T03:47:41.429Z,95.53
2022-12-06T03:48:41.420Z,95.99
2022-12-06T03:49:41.415Z,95.84
2022-12-06T03:50:41.407Z,95.63
2022-12-06T03:51:41.397Z,95.21
2022-12-06T03:52:41.410Z,94.80
2022-12-06T03:53:41.409Z,95.42
2022-12-06T03:54:41.383Z,94.90
2022-12-06T03:55:41.379Z,94.80
2022-12-06T03:56:41.369Z,94.90
2022-12-06T03:57:41.358Z,94.80
2022-12-06T03:58:41.353Z,94.80
2022-12-06T03:59:41.361Z,94.90
2022-12-06T04:00:41.357Z,94.70
2022-12-06T04:01:41.389Z,94.59
2022-12-06T04:02:41.328Z,94.70
2022-12-06T04:03:41.365Z,94.70
2022-12-06T04:04:41.324Z,94.80
2022-12-06T04:05:41.343Z,95.15
2022-12-06T04:06:41.301Z,95.47
2022-12-06T04:07:41.325Z,94.90
2022-12-06T04:08:41.289Z,94.84
2022-12-06T04:09:41.285Z,94.74
2022-12-06T04:10:41.275Z,94.80
2022-12-06T04:11:41.287Z,94.84
2022-12-06T04:12:41.260Z,94.70
2022-12-06T04:13:41.266Z,94.90
2022-12-06T04:14:41.246Z,95.15
2022-12-06T04:15:41.311Z,95.11
2022-12-06T04:16:41.249Z,94.95
2022-12-06T04:17:41.236Z,94.84
2022-12-06T04:18:41.233Z,94.59
2022-12-06T04:19:41.234Z,94.49
2022-12-06T04:20:41.207Z,94.59
2022-12-06T04:21:41.203Z,94.84
2022-12-06T04:22:41.198Z,95.57
2022-12-06T04:23:41.196Z,95.47
2022-12-06T04:24:41.183Z,95.89
2022-12-06T04:25:41.203Z,95.57
2022-12-06T04:26:41.173Z,95.36
2022-12-06T04:27:41.167Z,94.95
2022-12-06T04:28:41.152Z,95.47
2022-12-06T04:29:41.150Z,95.26
2022-12-06T04:30:41.153Z,95.47
2022-12-06T04:31:41.224Z,95.57
2022-12-06T04:32:41.137Z,95.99
2022-12-06T04:33:41.130Z,95.83
2022-12-06T04:34:41.137Z,95.83
2022-12-06T04:35:41.128Z,95.99
2022-12-06T04:36:41.108Z,95.51
2022-12-06T04:37:41.102Z,95.36
2022-12-06T04:38:41.093Z,95.67
2022-12-06T04:39:41.113Z,95.47
2022-12-06T04:40:41.093Z,95.15
2022-12-06T04:41:41.112Z,95.57
2022-12-06T04:42:41.059Z,95.67
2022-12-06T04:43:41.058Z,95.26
2022-12-06T04:44:41.068Z,94.64
2022-12-06T04:45:41.061Z,94.84
2022-12-06T04:46:41.115Z,95.26
2022-12-06T04:47:41.054Z,95.36
2022-12-06T04:48:41.031Z,95.36
2022-12-06T04:49:41.028Z,95.26
2022-12-06T04:50:41.038Z,95.26
2022-12-06T04:51:41.017Z,95.26
2022-12-06T04:52:41.003Z,95.26
2022-12-06T04:53:40.995Z,95.36
2022-12-06T04:54:41.002Z,95.26
2022-12-06T04:55:40.988Z,95.32
2022-12-06T04:56:40.987Z,95.47
2022-12-06T04:57:40.970Z,95.78
2022-12-06T04:58:40.961Z,96.14
2022-12-06T04:59:41.002Z,96.03
2022-12-06T05:00:40.987Z,96.41
2022-12-06T05:01:40.948Z,95.99
2022-12-06T05:02:40.934Z,95.89
2022-12-06T05:03:44.155Z,95.67
2022-12-06T05:04:40.927Z,95.26
2022-12-06T05:05:40.941Z,95.67
2022-12-06T05:06:40.914Z,95.47
2022-12-06T05:07:40.954Z,95.36
2022-12-06T05:08:40.901Z,94.95
2022-12-06T05:09:40.896Z,95.05
2022-12-06T05:10:40.889Z,94.84
2022-12-06T05:11:40.883Z,95.36
2022-12-06T05:12:40.888Z,95.26
2022-12-06T05:13:40.862Z,95.26
2022-12-06T05:14:40.864Z,95.36
2022-12-06T05:15:40.863Z,95.15
2022-12-06T05:16:40.881Z,95.01
2022-12-06T05:17:40.856Z,94.49
2022-12-06T05:18:40.844Z,93.97
2022-12-06T05:19:40.833Z,94.22
2022-12-06T05:20:40.829Z,94.64
2022-12-06T05:21:40.833Z,94.43
2022-12-06T05:22:40.803Z,94.22
2022-12-06T05:23:40.805Z,94.53
2022-12-06T05:24:40.798Z,94.53
2022-12-06T05:25:40.790Z,94.95
2022-12-06T05:26:40.794Z,94.53
2022-12-06T05:27:40.791Z,94.84
2022-12-06T05:28:40.769Z,94.53
2022-12-06T05:29:40.769Z,94.74
2022-12-06T05:30:40.754Z,94.84
2022-12-06T05:31:40.812Z,94.84
2022-12-06T05:32:40.749Z,94.64
2022-12-06T05:33:40.800Z,94.53
2022-12-06T05:34:40.730Z,94.64
2022-12-06T05:35:40.729Z,94.43
2022-12-06T05:36:40.710Z,94.64
2022-12-06T05:37:40.712Z,94.53
2022-12-06T05:38:40.703Z,94.01
2022-12-06T05:39:40.722Z,94.32
2022-12-06T05:40:40.718Z,94.22
2022-12-06T05:41:40.691Z,94.12
2022-12-06T05:42:40.668Z,94.12
2022-12-06T05:43:40.683Z,94.22
2022-12-06T05:44:40.662Z,94.37
2022-12-06T05:45:40.722Z,94.84
2022-12-06T05:46:40.663Z,94.84
2022-12-06T05:47:40.653Z,95.30
2022-12-06T05:48:40.635Z,95.40
2022-12-06T05:49:40.636Z,94.78
2022-12-06T05:50:40.633Z,94.78
2022-12-06T05:51:40.613Z,95.20
2022-12-06T05:52:40.643Z,95.40
2022-12-06T05:53:40.603Z,95.26
2022-12-06T05:54:40.594Z,94.84
2022-12-06T05:55:40.606Z,94.89
2022-12-06T05:56:40.588Z,95.09
2022-12-06T05:57:45.611Z,94.84
2022-12-06T05:58:41.608Z,94.89
2022-12-06T05:59:40.564Z,94.43
2022-12-06T06:00:40.549Z,94.64
2022-12-06T06:01:40.602Z,94.32
2022-12-06T06:02:40.642Z,94.43
2022-12-06T06:03:46.954Z,94.53
2022-12-06T06:04:40.528Z,94.89
2022-12-06T06:05:40.520Z,94.84
2022-12-06T06:06:40.525Z,94.99
2022-12-06T06:07:40.585Z,94.89
2022-12-06T06:08:40.509Z,94.99
2022-12-06T06:09:40.499Z,94.89
2022-12-06T06:10:40.488Z,94.95
2022-12-06T06:11:40.480Z,94.95
2022-12-06T06:12:40.473Z,95.05
2022-12-06T06:13:40.488Z,94.74
2022-12-06T06:14:40.465Z,94.89
2022-12-06T06:15:40.474Z,95.05
2022-12-06T06:16:40.532Z,94.64
2022-12-06T06:17:40.451Z,94.43
2022-12-06T06:18:40.453Z,94.57
2022-12-06T06:19:40.439Z,94.64
2022-12-06T06:20:40.425Z,94.43
2022-12-06T06:21:40.443Z,94.74
2022-12-06T06:22:40.417Z,94.74
2022-12-06T06:23:40.405Z,94.22
2022-12-06T06:24:40.392Z,94.43
2022-12-06T06:25:40.391Z,94.32
2022-12-06T06:26:40.383Z,94.32
2022-12-06T06:27:40.403Z,94.12
2022-12-06T06:28:40.370Z,94.43
2022-12-06T06:29:45.153Z,94.64
2022-12-06T06:30:41.390Z,94.84
2022-12-06T06:31:40.413Z,94.64
2022-12-06T06:32:40.355Z,94.84
2022-12-06T06:33:40.360Z,94.84
2022-12-06T06:34:40.343Z,94.89
2022-12-06T06:35:40.347Z,94.84
2022-12-06T06:36:45.561Z,95.05
2022-12-06T06:37:40.323Z,94.84
2022-12-06T06:38:40.316Z,94.64
2022-12-06T06:39:40.310Z,94.84
2022-12-06T06:40:40.328Z,94.74
2022-12-06T06:41:40.296Z,94.64
2022-12-06T06:42:40.290Z,94.32
2022-12-06T06:43:40.282Z,94.74
2022-12-06T06:44:40.273Z,94.95
2022-12-06T06:45:40.296Z,94.84
2022-12-06T06:46:40.279Z,94.22
2022-12-06T06:47:40.257Z,94.53
2022-12-06T06:48:40.247Z,94.74
2022-12-06T06:49:40.246Z,94.84
2022-12-06T06:50:40.273Z,94.95
2022-12-06T06:51:40.232Z,95.30
2022-12-06T06:52:40.227Z,95.15
2022-12-06T06:53:40.222Z,95.36
2022-12-06T06:54:40.228Z,95.26
2022-12-06T06:55:40.209Z,95.47
2022-12-06T06:56:40.239Z,95.15
2022-12-06T06:57:40.199Z,95.05
2022-12-06T06:58:40.184Z,94.95
2022-12-06T06:59:40.181Z,94.64
2022-12-06T07:00:40.179Z,94.84
2022-12-06T07:01:40.248Z,94.84
2022-12-06T07:02:40.238Z,94.64
2022-12-06T07:03:40.157Z,94.53
2022-12-06T07:04:40.163Z,94.74
2022-12-06T07:05:40.151Z,94.89
2022-12-06T07:06:40.141Z,94.84
2022-12-06T07:07:40.188Z,94.84
2022-12-06T07:08:40.128Z,94.84
2022-12-06T07:09:40.125Z,95.26
2022-12-06T07:10:40.124Z,95.26
2022-12-06T07:11:40.115Z,95.15
2022-12-06T07:12:40.124Z,95.15
2022-12-06T07:13:40.105Z,94.95
2022-12-06T07:14:40.102Z,95.26
2022-12-06T07:15:40.086Z,95.05
2022-12-06T07:16:40.105Z,95.15
2022-12-06T07:17:40.078Z,95.26
2022-12-06T07:18:40.083Z,95.26
2022-12-06T07:19:40.058Z,95.36
2022-12-06T07:20:40.076Z,95.05
2022-12-06T07:21:40.056Z,95.36
2022-12-06T07:22:40.041Z,95.26
2022-12-06T07:23:40.041Z,95.15
2022-12-06T07:24:43.652Z,95.26
2022-12-06T07:25:41.063Z,95.26
2022-12-06T07:26:40.021Z,95.30
2022-12-06T07:27:40.013Z,95.26
2022-12-06T07:28:40.006Z,95.15
2022-12-06T07:29:40.010Z,95.15
2022-12-06T07:30:40.081Z,95.05
2022-12-06T07:31:40.052Z,95.78
2022-12-06T07:32:39.981Z,95.26
2022-12-06T07:33:39.984Z,95.36
2022-12-06T07:34:39.975Z,95.40
2022-12-06T07:36:10.956Z,95.67
2022-12-06T07:36:40.985Z,95.15
2022-12-06T07:37:39.958Z,95.36
2022-12-06T07:38:39.961Z,94.80
2022-12-06T07:39:39.949Z,94.64
2022-12-06T07:41:39.955Z,94.74
2022-12-06T07:42:39.926Z,95.26
2022-12-06T07:43:39.922Z,95.15
2022-12-06T07:44:39.936Z,94.84
2022-12-06T07:45:39.971Z,94.59
2022-12-06T07:46:39.914Z,94.84
2022-12-06T07:47:39.929Z,94.74
2022-12-06T07:48:39.893Z,94.64
2022-12-06T07:49:39.885Z,95.05
2022-12-06T07:50:39.891Z,94.84
2022-12-06T07:51:39.880Z,94.84
2022-12-06T07:52:39.876Z,95.26
2022-12-06T07:53:39.861Z,95.11
2022-12-06T07:54:39.867Z,95.26
2022-12-06T07:55:39.857Z,95.36
2022-12-06T07:56:39.843Z,95.15
2022-12-06T07:57:43.457Z,95.05
2022-12-06T07:58:39.829Z,94.84
2022-12-06T07:59:39.843Z,94.95
2022-12-06T08:00:39.838Z,94.80
2022-12-06T08:01:39.941Z,94.49
2022-12-06T08:02:39.823Z,94.49
2022-12-06T08:03:39.802Z,94.74
2022-12-06T08:04:39.871Z,94.80
2022-12-06T08:05:39.803Z,94.84
2022-12-06T08:06:39.786Z,94.74
2022-12-06T08:07:39.854Z,94.84
2022-12-06T08:08:39.771Z,95.05
2022-12-06T08:09:39.782Z,94.80
2022-12-06T08:10:39.755Z,94.49
2022-12-06T08:11:39.768Z,94.49
2022-12-06T08:12:39.754Z,94.70
2022-12-06T08:13:39.764Z,94.59
2022-12-06T08:14:39.737Z,94.70
2022-12-06T08:15:39.796Z,94.03
2022-12-06T08:16:39.717Z,93.72
2022-12-06T08:17:39.714Z,93.72
2022-12-06T08:18:39.714Z,94.13
2022-12-06T08:19:39.756Z,93.87
2022-12-06T08:20:39.695Z,94.07
2022-12-06T08:21:39.691Z,94.03
2022-12-06T08:22:39.690Z,93.93
2022-12-06T08:23:39.672Z,93.41
2022-12-06T08:24:39.659Z,93.72
2022-12-06T08:25:39.677Z,93.82
2022-12-06T08:26:39.652Z,93.76
2022-12-06T08:27:39.642Z,94.13
2022-12-06T08:28:39.635Z,93.93
2022-12-06T08:29:39.646Z,93.93
2022-12-06T08:30:39.693Z,93.72
2022-12-06T08:31:39.687Z,93.62
2022-12-06T08:32:39.613Z,93.72
2022-12-06T08:33:39.614Z,94.03
2022-12-06T08:34:39.602Z,93.97
2022-12-06T08:35:39.593Z,94.07
2022-12-06T08:36:39.603Z,94.70
2022-12-06T08:37:39.610Z,94.70
2022-12-06T08:38:39.572Z,94.59
2022-12-06T08:39:39.567Z,94.59
2022-12-06T08:40:39.563Z,94.18
2022-12-06T08:41:39.572Z,94.38
2022-12-06T08:42:39.560Z,94.70
2022-12-06T08:43:39.547Z,94.65
2022-12-06T08:44:39.538Z,94.07
2022-12-06T08:45:39.531Z,94.03
2022-12-06T08:46:39.585Z,93.82
2022-12-06T08:47:39.532Z,93.93
2022-12-06T08:48:42.977Z,94.03
2022-12-06T08:49:39.523Z,93.97
2022-12-06T08:50:39.496Z,93.87
2022-12-06T08:51:39.496Z,94.13
2022-12-06T08:52:39.484Z,94.38
2022-12-06T08:53:39.515Z,94.13
2022-12-06T08:54:39.488Z,94.03
2022-12-06T08:55:39.468Z,94.03
2022-12-06T08:56:39.457Z,93.93
2022-12-06T08:57:39.473Z,93.82
2022-12-06T08:58:39.444Z,93.62
2022-12-06T08:59:39.470Z,93.51
2022-12-06T09:00:39.436Z,93.72
2022-12-06T09:01:39.480Z,93.51
2022-12-06T09:02:39.448Z,93.30
2022-12-06T09:03:39.422Z,93.41
2022-12-06T09:04:39.497Z,93.93
2022-12-06T09:05:39.430Z,93.51
2022-12-06T09:06:39.420Z,93.93
2022-12-06T09:07:39.410Z,93.76
2022-12-06T09:08:39.390Z,93.62
2022-12-06T09:09:39.391Z,94.03
2022-12-06T09:10:39.373Z,93.82
2022-12-06T09:11:39.371Z,93.93
2022-12-06T09:12:39.382Z,94.03
2022-12-06T09:13:39.361Z,94.13
2022-12-06T09:14:39.358Z,94.24
2022-12-06T09:15:39.419Z,94.07
2022-12-06T09:16:39.343Z,94.03
2022-12-06T09:17:39.348Z,94.03
2022-12-06T09:18:39.328Z,94.55
2022-12-06T09:19:39.336Z,94.59
2022-12-06T09:20:39.322Z,94.80
2022-12-06T09:21:39.330Z,94.34
2022-12-06T09:22:39.308Z,94.65
2022-12-06T09:23:39.320Z,94.03
2022-12-06T09:24:39.305Z,94.13
2022-12-06T09:25:39.319Z,93.82
2022-12-06T09:26:39.302Z,93.82
2022-12-06T09:27:39.277Z,93.30
2022-12-06T09:28:39.300Z,93.93
2022-12-06T09:29:40.962Z,93.93
2022-12-06T09:30:39.281Z,93.72
2022-12-06T09:31:39.308Z,93.93
2022-12-06T09:32:39.247Z,93.72
2022-12-06T09:33:39.294Z,93.93
2022-12-06T09:34:39.252Z,93.72
2022-12-06T09:35:39.235Z,94.13
2022-12-06T09:36:39.227Z,94.24
2022-12-06T09:37:39.219Z,94.34
2022-12-06T09:38:39.220Z,93.72
2022-12-06T09:39:39.215Z,93.72
2022-12-06T09:40:42.843Z,93.93
2022-12-06T09:41:39.190Z,93.37
2022-12-06T09:42:39.218Z,92.53
2022-12-06T09:43:39.181Z,92.32
2022-12-06T09:44:39.165Z,92.74
2022-12-06T09:45:39.215Z,92.11
2022-12-06T09:46:39.218Z,92.84
2022-12-06T09:47:39.159Z,93.05
2022-12-06T09:48:41.795Z,93.30
2022-12-06T09:49:40.149Z,93.72
2022-12-06T09:50:39.133Z,93.57
2022-12-06T09:51:39.137Z,93.88
2022-12-06T09:52:39.118Z,93.47
2022-12-06T09:53:39.122Z,93.05
2022-12-06T09:54:39.108Z,93.05
2022-12-06T09:55:39.119Z,92.94
2022-12-06T09:56:39.110Z,92.18
2022-12-06T09:57:39.086Z,91.86
2022-12-06T09:58:39.079Z,91.91
2022-12-06T09:59:39.073Z,91.60
2022-12-06T10:00:39.098Z,92.07
2022-12-06T10:01:39.122Z,92.63
2022-12-06T10:02:39.152Z,92.22
2022-12-06T10:03:39.052Z,91.91
2022-12-06T10:04:39.051Z,92.43
2022-12-06T10:05:39.064Z,93.26
2022-12-06T10:06:39.029Z,93.57
2022-12-06T10:07:39.160Z,93.68
2022-12-06T10:08:39.151Z,93.88
2022-12-06T10:09:39.012Z,93.57
2022-12-06T10:10:39.014Z,93.93
2022-12-06T10:11:39.028Z,93.47
2022-12-06T10:12:39.001Z,93.47
2022-12-06T10:13:38.999Z,93.57
2022-12-06T10:14:38.985Z,93.26
2022-12-06T10:15:39.081Z,93.26
2022-12-06T10:16:39.006Z,93.16
2022-12-06T10:17:38.971Z,93.01
2022-12-06T10:18:38.950Z,93.01
2022-12-06T10:19:38.946Z,93.26
2022-12-06T10:20:38.943Z,93.78
2022-12-06T10:21:38.958Z,93.99
2022-12-06T10:22:38.932Z,93.68
2022-12-06T10:23:38.933Z,93.57
2022-12-06T10:24:38.927Z,93.78
2022-12-06T10:25:38.926Z,93.72
2022-12-06T10:26:38.914Z,93.78
2022-12-06T10:27:38.923Z,93.57
2022-12-06T10:28:38.891Z,93.26
2022-12-06T10:29:38.885Z,93.57
2022-12-06T10:30:38.895Z,93.05
2022-12-06T10:31:38.893Z,93.47
2022-12-06T10:32:38.856Z,93.26
2022-12-06T10:33:38.879Z,93.62
2022-12-06T10:34:40.303Z,93.78
2022-12-06T10:35:38.849Z,93.78
2022-12-06T10:36:38.850Z,93.88
2022-12-06T10:37:38.831Z,93.88
2022-12-06T10:38:38.825Z,93.88
2022-12-06T10:39:38.846Z,93.88
2022-12-06T10:40:38.858Z,93.84
2022-12-06T10:41:38.817Z,93.53
2022-12-06T10:42:38.809Z,93.32
2022-12-06T10:43:38.798Z,93.68
2022-12-06T10:44:38.783Z,93.74
2022-12-06T10:45:38.790Z,93.99
2022-12-06T10:46:38.860Z,93.99
2022-12-06T10:47:38.772Z,94.61
2022-12-06T10:48:38.760Z,94.36
2022-12-06T10:49:38.786Z,93.88
2022-12-06T10:50:38.760Z,93.68
2022-12-06T10:51:38.760Z,93.32
2022-12-06T10:52:38.737Z,93.43
2022-12-06T10:53:38.741Z,93.22
2022-12-06T10:54:38.749Z,93.32
2022-12-06T10:55:38.729Z,93.32
2022-12-06T10:56:38.714Z,92.90
2022-12-06T10:57:38.719Z,92.80
2022-12-06T10:58:38.708Z,92.69
2022-12-06T10:59:38.697Z,92.90
2022-12-06T11:00:38.738Z,92.69
2022-12-06T11:01:38.789Z,92.90
2022-12-06T11:02:38.742Z,93.12
2022-12-06T11:03:38.670Z,93.63
2022-12-06T11:04:38.662Z,93.22
2022-12-06T11:05:38.670Z,93.43
2022-12-06T11:06:38.662Z,93.43
2022-12-06T11:07:38.685Z,93.74
2022-12-06T11:08:38.674Z,93.63
2022-12-06T11:09:38.661Z,93.53
2022-12-06T11:10:38.627Z,93.53
2022-12-06T11:11:38.624Z,93.43
2022-12-06T11:12:38.615Z,93.12
2022-12-06T11:13:38.622Z,93.53
2022-12-06T11:14:38.682Z,93.12
2022-12-06T11:15:38.605Z,92.49
2022-12-06T11:16:38.625Z,92.90
2022-12-06T11:17:38.598Z,93.32
2022-12-06T11:18:38.595Z,93.84
2022-12-06T11:19:38.583Z,93.84
2022-12-06T11:20:38.586Z,93.74
2022-12-06T11:21:38.601Z,93.84
2022-12-06T11:22:38.551Z,93.63
2022-12-06T11:23:38.559Z,93.84
2022-12-06T11:24:41.926Z,93.84
2022-12-06T11:25:39.543Z,94.15
2022-12-06T11:26:38.535Z,94.05
2022-12-06T11:27:38.561Z,94.36
2022-12-06T11:28:38.553Z,94.46
2022-12-06T11:29:38.515Z,94.98
2022-12-06T11:30:38.498Z,94.67
2022-12-06T11:31:38.561Z,94.46
2022-12-06T11:32:38.483Z,93.95
2022-12-06T11:33:38.501Z,93.70
2022-12-06T11:34:38.502Z,93.49
2022-12-06T11:35:38.496Z,93.38
2022-12-06T11:36:38.461Z,93.70
2022-12-06T11:37:42.934Z,93.28
2022-12-06T11:38:39.569Z,93.28
2022-12-06T11:39:38.470Z,93.49
2022-12-06T11:40:38.438Z,93.70
2022-12-06T11:41:38.437Z,93.80
2022-12-06T11:42:38.435Z,93.74
2022-12-06T11:43:38.423Z,93.90
2022-12-06T11:44:38.430Z,92.69
2022-12-06T11:45:38.403Z,93.53
2022-12-06T11:46:38.457Z,92.66
2022-12-06T11:47:38.439Z,91.93
2022-12-06T11:48:38.387Z,91.83
2022-12-06T11:49:38.405Z,92.86
2022-12-06T11:50:38.380Z,92.97
2022-12-06T11:51:38.395Z,93.38
2022-12-06T11:52:38.382Z,93.18
2022-12-06T11:53:38.365Z,93.28
2022-12-06T11:54:38.350Z,93.07
2022-12-06T11:55:38.371Z,92.45
2022-12-06T11:56:38.358Z,92.45
2022-12-06T11:57:38.334Z,91.93
2022-12-06T11:58:38.325Z,92.03
2022-12-06T11:59:38.313Z,91.52
2022-12-06T12:00:38.357Z,92.24
2022-12-06T12:01:38.369Z,91.83
2022-12-06T12:02:38.365Z,92.14
2022-12-06T12:03:38.338Z,91.93
2022-12-06T12:04:38.281Z,92.76
2022-12-06T12:05:38.299Z,92.69
2022-12-06T12:06:38.276Z,92.66
2022-12-06T12:07:38.315Z,92.80
2022-12-06T12:08:38.268Z,93.07
2022-12-06T12:09:38.273Z,93.38
2022-12-06T12:10:38.266Z,93.32
2022-12-06T12:11:38.257Z,93.28
2022-12-06T12:12:38.250Z,93.84
2022-12-06T12:13:38.228Z,94.05
2022-12-06T12:14:38.226Z,93.84
2022-12-06T12:15:38.217Z,93.74
2022-12-06T12:16:38.258Z,93.80
2022-12-06T12:17:38.207Z,93.90
2022-12-06T12:18:38.208Z,93.59
2022-12-06T12:19:38.186Z,93.49
2022-12-06T12:20:38.213Z,93.53
2022-12-06T12:21:38.186Z,93.70
2022-12-06T12:22:38.185Z,93.63
2022-12-06T12:23:38.175Z,92.97
2022-12-06T12:24:56.406Z,92.97
2022-12-06T12:25:39.304Z,92.38
2022-12-06T12:26:38.142Z,93.07
2022-12-06T12:27:38.139Z,93.18
2022-12-06T12:28:38.128Z,92.97
2022-12-06T12:29:38.143Z,93.07
2022-12-06T12:30:38.153Z,92.55
2022-12-06T12:31:38.211Z,92.86
2022-12-06T12:32:38.104Z,92.72
2022-12-06T12:33:38.113Z,92.86
2022-12-06T12:34:42.749Z,92.66
2022-12-06T12:35:38.085Z,92.45
2022-12-06T12:36:38.116Z,91.52
2022-12-06T12:37:38.072Z,92.35
2022-12-06T12:38:38.072Z,91.93
2022-12-06T12:39:38.069Z,92.76
2022-12-06T12:40:38.060Z,93.07
2022-12-06T12:41:38.050Z,92.97
2022-12-06T12:42:38.057Z,93.53
2022-12-06T12:43:38.039Z,93.28
2022-12-06T12:44:39.353Z,93.70
2022-12-06T12:45:38.058Z,93.90
2022-12-06T12:46:38.096Z,93.49
2022-12-06T12:47:38.038Z,93.49
2022-12-06T12:48:38.029Z,93.28
2022-12-06T12:49:38.017Z,93.38
2022-12-06T12:50:37.992Z,93.70
2022-12-06T12:51:38.006Z,93.59
2022-12-06T12:52:37.999Z,93.38
2022-12-06T12:53:37.995Z,93.28